Time;durP1;ratioP1;P1;durP2;ratioP2;P2;SDS_P1;SDS_P2;PMS_P1;PMS_P2;Temp;Humidity;BMP_temperature;BMP_pressure;BME280_temperature;BME280_humidity;BME280_pressure;Samples;Min_cycle;Max_cycle;Signal;HPM_P1;HPM_P2
2023/02/27 00:00:13;;;;;;;4.47;4.00;;;2.50;99.90;;;;;;5006890;28;20030;-82
2023/02/27 00:02:43;;;;;;;3.70;3.40;;;2.50;99.90;;;;;;5010840;28;20034;-82
2023/02/27 00:05:09;;;;;;;4.60;4.20;;;2.50;99.90;;;;;;5013708;28;20084;-82
2023/02/27 00:07:35;;;;;;;4.83;3.50;;;2.40;99.90;;;;;;5011630;28;20034;-82
2023/02/27 00:10:01;;;;;;;5.30;4.13;;;2.40;99.90;;;;;;5068052;28;20030;-83
2023/02/27 00:12:29;;;;;;;4.20;3.80;;;2.40;99.90;;;;;;5034749;28;20052;-82
2023/02/27 00:14:55;;;;;;;4.70;4.23;;;2.40;99.90;;;;;;5001142;28;20052;-82
2023/02/27 00:17:24;;;;;;;5.83;4.10;;;2.30;99.90;;;;;;5012109;28;20042;-82
2023/02/27 00:19:50;;;;;;;4.23;3.83;;;2.30;99.90;;;;;;5044407;28;20029;-82
2023/02/27 00:22:16;;;;;;;3.97;3.57;;;2.30;99.90;;;;;;4998197;28;20061;-83
2023/02/27 00:24:42;;;;;;;4.87;3.50;;;2.30;99.90;;;;;;5006366;28;20026;-82
2023/02/27 00:27:09;;;;;;;5.00;3.70;;;2.20;99.90;;;;;;4996265;28;20033;-82
2023/02/27 00:29:35;;;;;;;5.07;4.10;;;2.20;99.90;;;;;;5015683;28;20041;-82
2023/02/27 00:32:01;;;;;;;7.03;4.10;;;2.20;99.90;;;;;;4994057;28;20488;-82
2023/02/27 00:34:27;;;;;;;4.47;3.70;;;2.20;99.90;;;;;;5010687;28;20034;-82
2023/02/27 00:36:53;;;;;;;6.53;3.50;;;2.20;99.90;;;;;;5003389;28;20097;-81
2023/02/27 00:39:19;;;;;;;6.77;4.10;;;2.10;99.90;;;;;;5013541;28;20400;-82
2023/02/27 00:41:45;;;;;;;4.07;3.67;;;2.00;99.90;;;;;;5012133;28;20033;-82
2023/02/27 00:44:11;;;;;;;3.90;3.50;;;2.00;99.90;;;;;;4998198;28;20041;-82
2023/02/27 00:46:37;;;;;;;5.73;3.90;;;2.10;99.90;;;;;;4992431;28;20038;-82
2023/02/27 00:49:04;;;;;;;4.37;3.97;;;2.00;99.90;;;;;;5039647;28;20341;-82
2023/02/27 00:51:30;;;;;;;4.30;3.90;;;2.00;99.90;;;;;;5010608;28;20042;-82
2023/02/27 00:53:56;;;;;;;5.07;3.97;;;2.00;99.90;;;;;;5000686;28;20042;-82
2023/02/27 00:56:22;;;;;;;4.73;3.57;;;2.00;99.90;;;;;;5025056;28;20041;-82
2023/02/27 00:58:48;;;;;;;3.40;3.20;;;2.00;99.90;;;;;;5014160;28;20034;-83
2023/02/27 01:01:14;;;;;;;4.83;4.20;;;2.00;99.90;;;;;;5009526;28;20038;-82
2023/02/27 01:03:40;;;;;;;3.80;3.50;;;2.10;99.90;;;;;;5010658;28;20037;-82
2023/02/27 01:06:07;;;;;;;6.70;4.50;;;2.00;99.90;;;;;;5011201;28;20383;-82
2023/02/27 01:08:33;;;;;;;5.70;4.30;;;1.90;99.90;;;;;;5012846;28;20033;-82
2023/02/27 01:10:59;;;;;;;4.40;4.00;;;1.90;99.90;;;;;;5011576;28;20042;-82
2023/02/27 01:13:25;;;;;;;7.33;4.13;;;1.90;99.90;;;;;;5023175;28;20030;-82
2023/02/27 01:15:51;;;;;;;4.47;3.63;;;1.90;99.90;;;;;;4999245;28;20038;-82
2023/02/27 01:18:17;;;;;;;3.70;3.40;;;1.80;99.90;;;;;;5012862;28;20036;-82
2023/02/27 01:20:43;;;;;;;4.10;3.70;;;1.90;99.90;;;;;;5010846;28;20038;-82
2023/02/27 01:23:09;;;;;;;5.30;4.00;;;1.80;99.90;;;;;;5010811;28;20034;-82
2023/02/27 01:25:35;;;;;;;4.83;4.17;;;1.80;99.90;;;;;;5010831;28;20045;-82
2023/02/27 01:28:02;;;;;;;7.10;4.23;;;1.80;99.90;;;;;;5007092;28;20036;-82
2023/02/27 01:30:28;;;;;;;4.20;3.90;;;1.80;99.90;;;;;;5011060;28;20042;-82
2023/02/27 01:32:54;;;;;;;4.70;3.40;;;1.80;99.90;;;;;;5000519;28;20030;-82
2023/02/27 01:35:20;;;;;;;3.90;3.60;;;1.80;99.90;;;;;;5006922;28;20042;-82
2023/02/27 01:37:46;;;;;;;4.47;3.57;;;1.80;99.90;;;;;;4994483;28;20037;-82
2023/02/27 01:40:12;;;;;;;3.27;2.97;;;1.80;99.90;;;;;;5006731;28;20035;-82
2023/02/27 01:42:39;;;;;;;4.53;4.13;;;1.70;99.90;;;;;;4993796;28;20660;-82
2023/02/27 01:45:11;;;;;;;6.60;3.67;;;1.70;99.90;;;;;;4997478;28;20042;-81
2023/02/27 01:47:44;;;;;;;5.33;3.63;;;1.70;99.90;;;;;;5002664;28;20026;-82
2023/02/27 01:50:11;;;;;;;5.33;3.60;;;1.80;99.90;;;;;;5036567;28;20045;-82
2023/02/27 01:52:37;;;;;;;5.30;3.67;;;1.80;99.90;;;;;;5040560;28;20030;-82
2023/02/27 01:55:05;;;;;;;4.03;3.10;;;1.80;99.90;;;;;;5038038;28;20038;-82
2023/02/27 01:57:31;;;;;;;12.30;4.50;;;1.70;99.90;;;;;;5045198;28;20046;-82
2023/02/27 01:59:57;;;;;;;3.97;3.37;;;1.70;99.90;;;;;;5037544;28;20393;-82
2023/02/27 02:02:26;;;;;;;4.07;3.70;;;1.70;99.90;;;;;;5045665;28;20041;-82
2023/02/27 02:04:53;;;;;;;4.17;3.47;;;1.80;99.90;;;;;;5031227;28;20026;-82
2023/02/27 02:07:19;;;;;;;3.80;3.37;;;1.70;99.90;;;;;;5045835;28;20040;-82
2023/02/27 02:09:52;;;;;;;5.20;4.27;;;1.70;99.90;;;;;;5046433;28;20425;-82
2023/02/27 02:12:19;;;;;;;4.00;3.50;;;1.70;99.90;;;;;;5046069;28;20483;-82
2023/02/27 02:14:45;;;;;;;3.63;3.33;;;1.70;99.90;;;;;;5043957;28;20033;-82
2023/02/27 02:17:43;;;;;;;5.60;3.93;;;1.70;99.90;;;;;;5007641;28;20400;-82
2023/02/27 02:21:03;;;;;;;3.73;3.43;;;1.70;99.90;;;;;;5023825;28;20038;-82
2023/02/27 02:24:08;;;;;;;5.80;3.93;;;1.70;99.90;;;;;;5013178;28;20058;-82
2023/02/27 02:27:03;;;;;;;3.57;3.27;;;1.60;99.90;;;;;;4939556;28;20043;-82
2023/02/27 02:30:11;;;;;;;3.50;3.03;;;1.60;99.90;;;;;;4953447;28;20035;-82
2023/02/27 02:33:02;;;;;;;6.07;4.37;;;1.60;99.90;;;;;;4930767;29;20047;-82
2023/02/27 02:35:46;;;;;;;3.95;3.60;;;1.60;99.90;;;;;;4952720;28;20080;-82
2023/02/27 02:38:18;;;;;;;6.60;4.67;;;1.60;99.90;;;;;;4937683;29;20043;-81
2023/02/27 02:40:47;;;;;;;5.67;4.30;;;1.60;99.90;;;;;;4953873;28;20144;-82
2023/02/27 02:43:43;;;;;;;4.60;4.20;;;1.60;99.90;;;;;;4952161;28;20050;-82
2023/02/27 02:46:14;;;;;;;5.67;4.17;;;1.60;99.90;;;;;;4936248;28;20039;-82
2023/02/27 02:48:45;;;;;;;3.97;3.33;;;1.60;99.90;;;;;;4953618;29;20039;-82
2023/02/27 02:51:34;;;;;;;4.78;4.07;;;1.60;99.90;;;;;;4940224;28;20095;-82
2023/02/27 02:54:19;;;;;;;6.90;4.30;;;1.60;99.90;;;;;;4928130;29;20040;-82
2023/02/27 02:56:48;;;;;;;6.17;5.20;;;1.60;99.90;;;;;;4928653;29;20051;-82
2023/02/27 02:59:31;;;;;;;4.77;3.90;;;1.60;99.90;;;;;;4928827;29;20040;-82
2023/02/27 03:02:03;;;;;;;5.20;4.10;;;1.60;99.90;;;;;;4919411;29;20039;-82
2023/02/27 03:04:52;;;;;;;4.40;3.60;;;1.60;99.90;;;;;;5008706;28;20056;-82
2023/02/27 03:07:22;;;;;;;4.40;3.83;;;1.60;99.90;;;;;;5006099;28;20037;-82
2023/02/27 03:10:08;;;;;;;4.45;4.00;;;1.50;99.90;;;;;;5009669;28;20468;-82
2023/02/27 03:12:35;;;;;;;7.73;4.30;;;1.40;99.90;;;;;;5037627;28;20045;-82
2023/02/27 03:15:11;;;;;;;7.93;4.70;;;1.50;99.90;;;;;;5021301;28;20057;-82
2023/02/27 03:17:46;;;;;;;6.10;4.63;;;1.50;99.90;;;;;;4990932;28;20046;-82
2023/02/27 03:20:21;;;;;;;5.90;4.73;;;1.50;99.90;;;;;;5037220;28;20390;-82
2023/02/27 03:22:48;;;;;;;6.53;3.80;;;1.50;99.90;;;;;;5023726;28;20113;-82
2023/02/27 03:25:14;;;;;;;3.73;3.43;;;1.50;99.90;;;;;;5035586;28;20436;-82
2023/02/27 03:27:47;;;;;;;4.43;3.93;;;1.50;99.90;;;;;;5034326;28;20045;-82
2023/02/27 03:30:41;;;;;;;5.20;4.10;;;1.50;99.90;;;;;;5022780;28;20022;-82
2023/02/27 03:33:21;;;;;;;6.67;4.17;;;1.40;99.90;;;;;;4991931;28;20038;-82
2023/02/27 03:36:11;;;;;;;5.07;3.80;;;1.40;99.90;;;;;;5012248;28;20034;-81
2023/02/27 03:38:55;;;;;;;4.33;3.93;;;1.40;99.90;;;;;;5030325;28;20030;-82
2023/02/27 03:41:30;;;;;;;5.27;3.77;;;1.30;99.90;;;;;;5024246;28;20360;-82
2023/02/27 03:44:10;;;;;;;7.13;4.50;;;1.40;99.90;;;;;;5024499;28;20375;-82
2023/02/27 03:46:36;;;;;;;5.97;3.93;;;1.30;99.90;;;;;;5026016;28;20038;-82
2023/02/27 03:49:02;;;;;;;3.97;3.60;;;1.30;99.90;;;;;;4999615;28;20033;-82
2023/02/27 03:51:30;;;;;;;5.30;3.80;;;1.30;99.90;;;;;;5002685;28;20034;-82
2023/02/27 03:54:13;;;;;;;6.23;3.70;;;1.40;99.90;;;;;;5036511;28;20053;-82
2023/02/27 03:57:04;;;;;;;3.70;3.40;;;1.40;99.90;;;;;;5041171;28;20034;-82
2023/02/27 03:59:30;;;;;;;6.82;4.38;;;1.40;99.90;;;;;;5013911;28;20038;-82
2023/02/27 04:01:56;;;;;;;3.60;3.33;;;1.40;99.90;;;;;;5044254;28;20040;-82
2023/02/27 04:04:26;;;;;;;7.27;3.53;;;1.40;99.90;;;;;;5043550;28;20034;-82
2023/02/27 04:10:05;;;;;;;4.57;4.07;;;1.30;99.90;;;;;;5031012;28;20360;-81
2023/02/27 04:12:58;;;;;;;4.23;3.73;;;1.30;99.90;;;;;;5008020;28;20045;-81
2023/02/27 04:15:45;;;;;;;4.70;3.70;;;1.30;99.90;;;;;;4998640;28;20045;-81
2023/02/27 04:18:16;;;;;;;7.90;3.97;;;1.30;99.90;;;;;;5012630;28;20052;-81
2023/02/27 04:20:49;;;;;;;3.65;3.17;;;1.30;99.90;;;;;;5012027;28;20053;-81
2023/02/27 04:23:20;;;;;;;4.13;3.17;;;1.30;99.90;;;;;;4982462;28;20415;-81
2023/02/27 04:25:54;;;;;;;5.75;4.22;;;1.20;99.90;;;;;;5020824;28;20056;-82
2023/02/27 04:28:58;;;;;;;3.10;2.80;;;1.20;99.90;;;;;;5030754;28;20205;-81
2023/02/27 04:31:36;;;;;;;4.33;3.00;;;1.20;99.90;;;;;;5028924;28;20037;-82
2023/02/27 04:34:09;;;;;;;9.77;3.60;;;1.30;99.90;;;;;;4993921;28;20056;-81
2023/02/27 04:36:44;;;;;;;4.47;3.80;;;1.30;99.90;;;;;;5022033;28;20037;-82
2023/02/27 04:39:16;;;;;;;4.13;3.03;;;1.20;99.90;;;;;;4990466;28;20053;-81
2023/02/27 04:41:49;;;;;;;7.20;4.57;;;1.20;99.90;;;;;;5006957;28;20602;-79
2023/02/27 04:44:15;;;;;;;3.73;3.43;;;1.20;99.90;;;;;;5005359;28;20034;-79
2023/02/27 04:46:42;;;;;;;4.43;3.47;;;1.20;99.90;;;;;;4994707;28;20042;-79
2023/02/27 04:49:13;;;;;;;4.73;3.33;;;1.20;99.90;;;;;;5013428;28;20418;-78
2023/02/27 04:51:51;;;;;;;3.50;3.07;;;1.30;99.90;;;;;;5006613;28;20494;-79
2023/02/27 04:54:23;;;;;;;5.67;3.67;;;1.20;99.90;;;;;;5010838;28;20033;-79
2023/02/27 04:56:54;;;;;;;8.47;3.80;;;1.20;99.90;;;;;;5017900;28;20038;-79
2023/02/27 04:59:25;;;;;;;4.17;3.73;;;1.20;99.90;;;;;;5011407;28;20025;-79
2023/02/27 05:01:58;;;;;;;4.03;3.67;;;1.20;99.90;;;;;;5011991;28;20030;-78
2023/02/27 05:04:26;;;;;;;8.50;4.87;;;1.20;99.90;;;;;;5029424;28;20038;-79
2023/02/27 05:06:52;;;;;;;8.60;5.07;;;1.20;99.90;;;;;;4991965;28;20098;-79
2023/02/27 05:09:37;;;;;;;4.17;3.40;;;1.20;99.90;;;;;;5025397;28;20030;-79
2023/02/27 05:12:05;;;;;;;6.77;4.33;;;1.20;99.90;;;;;;5024807;28;20027;-79
2023/02/27 05:15:08;;;;;;;4.53;4.13;;;1.20;99.90;;;;;;5028279;28;20478;-79
2023/02/27 05:17:41;;;;;;;3.60;3.30;;;1.20;99.90;;;;;;4966494;28;20531;-80
2023/02/27 05:20:08;;;;;;;4.73;4.20;;;1.20;99.90;;;;;;4971246;28;20034;-79
2023/02/27 05:22:52;;;;;;;6.70;3.37;;;1.20;99.90;;;;;;4939806;28;20058;-79
2023/02/27 05:25:30;;;;;;;4.87;4.43;;;1.10;99.90;;;;;;4963163;28;20544;-79
2023/02/27 05:27:58;;;;;;;5.87;3.97;;;1.10;99.90;;;;;;4964219;28;20489;-80
2023/02/27 05:30:33;;;;;;;5.03;3.60;;;1.20;99.90;;;;;;4997263;28;20030;-79
2023/02/27 05:33:01;;;;;;;8.27;4.70;;;1.10;99.90;;;;;;5014533;28;20431;-80
2023/02/27 05:35:39;;;;;;;4.27;3.97;;;1.10;99.90;;;;;;5030522;28;20045;-79
2023/02/27 05:38:08;;;;;;;5.77;4.30;;;1.10;99.90;;;;;;5012892;28;20498;-79
2023/02/27 05:41:01;;;;;;;3.70;3.40;;;1.10;99.90;;;;;;5014089;28;20037;-80
2023/02/27 05:43:30;;;;;;;4.97;4.07;;;1.10;99.90;;;;;;4970495;28;20034;-79
2023/02/27 05:46:05;;;;;;;6.70;4.53;;;1.10;99.90;;;;;;4962132;28;20519;-79
2023/02/27 05:48:42;;;;;;;5.10;4.60;;;1.10;99.90;;;;;;4962889;28;20603;-79
2023/02/27 05:51:09;;;;;;;3.87;3.57;;;1.10;99.90;;;;;;4978097;28;20502;-79
2023/02/27 05:53:39;;;;;;;6.27;4.33;;;1.10;99.90;;;;;;4963137;28;20049;-79
2023/02/27 05:56:05;;;;;;;4.83;3.87;;;1.10;99.90;;;;;;4982714;28;20538;-79
2023/02/27 05:58:35;;;;;;;5.60;4.40;;;1.10;99.90;;;;;;4977986;28;20046;-79
2023/02/27 06:01:03;;;;;;;5.95;4.80;;;1.00;99.90;;;;;;4985137;28;20027;-79
2023/02/27 06:03:30;;;;;;;7.50;3.97;;;1.00;99.90;;;;;;4991727;28;20030;-79
2023/02/27 06:05:57;;;;;;;6.70;5.20;;;1.00;99.90;;;;;;5007216;28;20035;-80
2023/02/27 06:08:25;;;;;;;3.80;3.50;;;1.00;99.90;;;;;;5010334;28;20037;-79
2023/02/27 06:10:51;;;;;;;4.00;3.70;;;1.00;99.90;;;;;;4995562;28;20050;-79
2023/02/27 06:13:17;;;;;;;5.57;4.97;;;1.00;99.90;;;;;;4994906;28;20031;-79
2023/02/27 06:15:44;;;;;;;4.57;4.17;;;1.00;99.90;;;;;;4996004;28;20506;-79
2023/02/27 06:18:11;;;;;;;4.37;3.90;;;1.00;99.90;;;;;;5010789;28;20038;-79
2023/02/27 06:20:37;;;;;;;5.13;4.63;;;1.00;99.90;;;;;;5027243;28;20038;-79
2023/02/27 06:23:04;;;;;;;5.73;4.47;;;1.00;99.90;;;;;;5026440;28;20049;-79
2023/02/27 06:25:30;;;;;;;3.90;3.60;;;1.00;99.90;;;;;;4995992;28;20038;-80
2023/02/27 06:27:56;;;;;;;4.50;4.10;;;0.90;99.90;;;;;;5030780;28;20034;-79
2023/02/27 06:30:22;;;;;;;8.60;4.63;;;0.90;99.90;;;;;;5014145;28;20041;-80
2023/02/27 06:32:48;;;;;;;10.70;4.60;;;0.90;99.90;;;;;;5015372;28;20468;-79
2023/02/27 06:35:14;;;;;;;4.13;3.70;;;0.90;99.90;;;;;;4994821;28;20049;-80
2023/02/27 06:37:40;;;;;;;3.63;3.40;;;0.90;99.90;;;;;;5002467;28;20062;-79
2023/02/27 06:40:13;;;;;;;4.63;3.90;;;0.90;99.90;;;;;;4977958;28;20027;-80
2023/02/27 06:42:42;;;;;;;3.60;3.30;;;1.20;99.90;;;;;;5009027;28;20171;-81
2023/02/27 06:45:09;;;;;;;5.33;4.53;;;1.10;99.90;;;;;;4998148;28;20043;-79
2023/02/27 06:47:35;;;;;;;4.30;3.87;;;1.00;99.90;;;;;;4987878;28;20035;-80
2023/02/27 06:50:02;;;;;;;5.50;4.30;;;0.90;99.90;;;;;;4995319;28;20034;-79
2023/02/27 06:52:28;;;;;;;7.03;4.47;;;0.90;99.90;;;;;;4994745;28;20034;-79
2023/02/27 06:54:54;;;;;;;4.10;3.47;;;0.90;99.90;;;;;;5020166;28;20026;-79
2023/02/27 06:57:20;;;;;;;5.47;4.33;;;0.90;99.90;;;;;;4980696;28;20035;-78
2023/02/27 06:59:46;;;;;;;7.13;3.40;;;0.90;99.90;;;;;;4974703;28;20061;-79
2023/02/27 07:02:13;;;;;;;8.30;4.90;;;0.90;99.90;;;;;;4987186;28;20075;-79
2023/02/27 07:04:39;;;;;;;5.93;4.47;;;0.80;99.90;;;;;;4990218;28;20030;-79
2023/02/27 07:07:05;;;;;;;3.80;3.03;;;0.80;99.90;;;;;;4977773;28;20027;-79
2023/02/27 07:09:32;;;;;;;5.13;3.93;;;0.80;99.90;;;;;;4995334;28;20463;-79
2023/02/27 07:11:58;;;;;;;2.97;2.77;;;0.80;99.90;;;;;;4980377;28;20038;-80
2023/02/27 07:14:24;;;;;;;4.40;3.43;;;0.80;99.90;;;;;;4975148;28;20039;-80
2023/02/27 07:16:53;;;;;;;4.00;3.70;;;0.80;99.90;;;;;;5004090;28;20038;-82
2023/02/27 07:19:23;;;;;;;4.13;3.23;;;0.80;99.90;;;;;;5025891;28;20035;-79
2023/02/27 07:21:49;;;;;;;4.03;3.73;;;0.80;99.90;;;;;;5009608;28;20042;-78
2023/02/27 07:24:15;;;;;;;5.57;3.90;;;0.90;99.90;;;;;;4994814;28;20061;-78
2023/02/27 07:26:41;;;;;;;5.00;3.93;;;0.90;99.90;;;;;;5001172;28;20035;-79
2023/02/27 07:29:08;;;;;;;3.47;3.23;;;0.90;99.90;;;;;;4995217;28;20475;-80
2023/02/27 07:31:34;;;;;;;4.13;3.83;;;0.90;99.90;;;;;;4985804;28;20030;-79
2023/02/27 07:34:00;;;;;;;5.60;4.63;;;0.90;99.90;;;;;;4993824;28;20053;-80
2023/02/27 07:36:27;;;;;;;4.83;4.03;;;1.00;99.90;;;;;;4994772;28;20026;-79
2023/02/27 07:38:53;;;;;;;8.47;3.67;;;1.00;99.90;;;;;;4993605;28;20038;-79
2023/02/27 07:41:19;;;;;;;4.00;3.70;;;1.00;99.90;;;;;;4997519;28;20383;-79
2023/02/27 07:43:45;;;;;;;7.87;4.23;;;1.10;99.90;;;;;;5045931;28;20030;-79
2023/02/27 07:46:11;;;;;;;5.20;3.97;;;1.10;99.90;;;;;;5011427;28;20490;-79
2023/02/27 07:48:38;;;;;;;6.80;3.67;;;1.20;99.90;;;;;;5012614;28;20060;-80
2023/02/27 07:51:04;;;;;;;4.77;4.17;;;1.20;99.90;;;;;;5042719;28;21507;-78
2023/02/27 07:53:30;;;;;;;5.00;4.47;;;1.30;99.90;;;;;;5025619;28;20041;-80
2023/02/27 07:55:56;;;;;;;5.00;4.00;;;1.50;99.90;;;;;;4999950;28;20379;-79
2023/02/27 07:58:22;;;;;;;4.73;3.60;;;1.60;99.90;;;;;;4999973;28;20038;-79
2023/02/27 08:00:49;;;;;;;4.40;3.97;;;1.70;99.90;;;;;;5008951;28;20400;-79
2023/02/27 08:03:15;;;;;;;7.00;4.50;;;1.90;99.90;;;;;;5044769;28;20029;-81
2023/02/27 08:05:41;;;;;;;4.93;4.43;;;2.00;99.90;;;;;;5029234;28;20037;-81
2023/02/27 08:08:07;;;;;;;4.70;4.30;;;2.10;99.90;;;;;;5029083;28;20463;-81
2023/02/27 08:10:33;;;;;;;15.93;14.77;;;2.20;99.90;;;;;;5011652;28;20036;-82
2023/02/27 08:12:59;;;;;;;9.83;9.03;;;2.30;99.90;;;;;;4995906;28;20030;-81
2023/02/27 08:15:25;;;;;;;4.87;4.57;;;2.30;99.90;;;;;;5024883;28;20034;-81
2023/02/27 08:17:51;;;;;;;5.33;4.77;;;2.40;99.90;;;;;;4993766;28;20046;-81
2023/02/27 08:20:21;;;;;;;4.73;4.27;;;2.50;99.90;;;;;;5026676;28;20494;-79
2023/02/27 08:22:47;;;;;;;4.57;4.07;;;2.60;99.90;;;;;;4994565;28;20049;-79
2023/02/27 08:25:13;;;;;;;4.80;4.30;;;2.60;99.90;;;;;;5034665;28;20033;-80
2023/02/27 08:27:39;;;;;;;5.03;4.50;;;2.80;99.90;;;;;;5029133;28;20030;-81
2023/02/27 08:30:07;;;;;;;3.67;3.37;;;2.90;99.90;;;;;;5031113;28;20088;-79
2023/02/27 08:32:33;;;;;;;6.60;4.47;;;2.90;99.90;;;;;;5015319;28;20034;-79
2023/02/27 08:35:01;;;;;;;4.90;4.50;;;3.00;99.90;;;;;;5014816;28;20464;-79
2023/02/27 08:37:27;;;;;;;3.80;3.60;;;3.10;99.90;;;;;;5009509;28;20471;-79
2023/02/27 08:39:53;;;;;;;4.43;4.13;;;3.30;99.90;;;;;;4996889;28;20042;-80
2023/02/27 08:42:19;;;;;;;4.43;4.07;;;3.40;99.90;;;;;;5033341;28;20033;-79
2023/02/27 08:44:45;;;;;;;5.83;5.43;;;3.50;99.90;;;;;;5028582;28;20045;-80
2023/02/27 08:47:12;;;;;;;4.87;4.47;;;3.50;99.90;;;;;;5010744;28;20037;-80
2023/02/27 08:49:38;;;;;;;5.30;4.10;;;3.50;99.90;;;;;;4972814;28;20049;-80
2023/02/27 08:52:04;;;;;;;9.53;8.83;;;3.60;99.90;;;;;;5024946;28;20049;-80
2023/02/27 08:54:30;;;;;;;4.90;4.43;;;3.60;99.90;;;;;;5025268;28;20452;-81
2023/02/27 08:56:56;;;;;;;4.90;4.60;;;3.70;99.90;;;;;;4991597;28;20027;-80
2023/02/27 08:59:22;;;;;;;4.33;4.03;;;3.70;99.90;;;;;;4992435;28;20388;-81
2023/02/27 09:01:49;;;;;;;5.13;4.73;;;3.80;99.90;;;;;;5011134;28;20026;-80
2023/02/27 09:04:15;;;;;;;4.63;4.30;;;3.90;99.90;;;;;;5028022;28;20041;-80
2023/02/27 09:06:41;;;;;;;4.63;4.23;;;4.00;99.90;;;;;;5012788;28;20045;-81
2023/02/27 09:09:08;;;;;;;5.30;4.90;;;4.00;99.90;;;;;;5011378;28;20037;-80
2023/02/27 09:11:34;;;;;;;4.43;4.20;;;4.20;99.90;;;;;;5038830;28;20033;-90
2023/02/27 09:14:00;;;;;;;11.80;11.10;;;4.30;99.90;;;;;;5035593;28;20038;-79
2023/02/27 09:16:26;;;;;;;4.80;4.40;;;4.40;99.90;;;;;;5041262;28;20034;-80
2023/02/27 09:18:52;;;;;;;14.77;13.83;;;4.30;99.90;;;;;;5008572;28;20066;-80
2023/02/27 09:21:19;;;;;;;4.20;3.90;;;4.40;99.90;;;;;;5010851;28;20410;-79
2023/02/27 09:23:45;;;;;;;40.77;37.83;;;4.30;99.90;;;;;;5001575;28;20039;-79
2023/02/27 09:26:12;;;;;;;5.53;5.23;;;4.30;99.90;;;;;;5001576;28;20029;-79
2023/02/27 09:28:41;;;;;;;6.83;6.43;;;4.20;99.90;;;;;;5021108;28;20390;-80
2023/02/27 09:31:07;;;;;;;186.67;174.30;;;4.40;99.90;;;;;;5013240;28;20038;-80
2023/02/27 09:33:34;;;;;;;9.10;8.50;;;4.50;99.90;;;;;;5025997;28;20030;-77
2023/02/27 09:36:00;;;;;;;4.80;4.50;;;4.50;99.90;;;;;;5033011;28;20045;-78
2023/02/27 09:38:26;;;;;;;6.00;5.40;;;4.70;99.90;;;;;;5009840;28;20045;-78
2023/02/27 09:40:53;;;;;;;5.30;4.67;;;4.80;99.90;;;;;;4997627;28;20367;-79
2023/02/27 09:43:22;;;;;;;7.93;5.93;;;5.00;99.90;;;;;;4994546;28;20030;-80
2023/02/27 09:45:50;;;;;;;15.30;14.40;;;4.90;99.80;;;;;;5039588;28;20499;-79
2023/02/27 09:48:29;;;;;;;5.67;5.33;;;5.00;99.70;;;;;;5000441;28;20041;-79
2023/02/27 09:50:55;;;;;;;9.10;8.13;;;5.10;99.50;;;;;;5027293;28;20038;-78
2023/02/27 09:53:30;;;;;;;5.57;5.23;;;5.20;99.10;;;;;;5012366;28;20030;-79
2023/02/27 09:56:15;;;;;;;5.33;4.93;;;5.40;99.40;;;;;;5006162;28;20383;-82
2023/02/27 09:58:44;;;;;;;5.47;5.07;;;5.60;98.30;;;;;;5009650;28;20052;-80
2023/02/27 10:01:47;;;;;;;8.00;6.63;;;5.60;97.70;;;;;;5024316;28;20037;-80
2023/02/27 10:05:09;;;;;;;5.57;5.17;;;5.30;97.30;;;;;;5011138;28;20034;-80
2023/02/27 10:08:04;;;;;;;5.40;4.97;;;5.40;97.20;;;;;;4954864;28;20038;-81
2023/02/27 10:10:33;;;;;;;6.10;5.70;;;5.50;96.90;;;;;;4952755;28;20169;-79
2023/02/27 10:13:22;;;;;;;6.97;6.57;;;5.40;96.20;;;;;;4971580;28;20039;-80
2023/02/27 10:15:49;;;;;;;7.80;7.30;;;5.30;96.00;;;;;;4960376;28;20035;-80
2023/02/27 10:18:57;;;;;;;21.00;19.80;;;5.60;96.50;;;;;;4957480;28;20046;-80
2023/02/27 10:21:46;;;;;;;7.03;5.93;;;5.70;95.60;;;;;;4914215;29;20040;-79
2023/02/27 10:24:26;;;;;;;11.10;10.50;;;5.80;95.70;;;;;;4901534;29;20273;-79
2023/02/27 10:26:53;;;;;;;7.00;5.43;;;6.00;95.90;;;;;;4885354;29;20450;-79
2023/02/27 10:29:22;;;;;;;9.90;9.30;;;5.90;95.10;;;;;;4902159;29;20356;-79
2023/02/27 10:31:52;;;;;;;7.37;5.30;;;5.90;95.10;;;;;;4897536;29;20455;-79
2023/02/27 10:34:20;;;;;;;8.00;7.47;;;6.00;94.20;;;;;;4887679;29;20044;-79
2023/02/27 10:36:46;;;;;;;6.20;5.63;;;6.00;94.10;;;;;;4898699;29;20036;-79
2023/02/27 10:39:14;;;;;;;8.23;7.63;;;6.00;94.50;;;;;;4909969;29;20052;-79
2023/02/27 10:41:40;;;;;;;5.87;5.57;;;6.30;94.90;;;;;;4917156;29;20539;-79
2023/02/27 10:44:08;;;;;;;6.20;5.60;;;6.30;93.40;;;;;;4897841;29;20207;-78
2023/02/27 10:46:35;;;;;;;5.73;5.40;;;6.20;92.90;;;;;;4900685;29;20114;-78
2023/02/27 10:49:04;;;;;;;13.80;12.97;;;6.20;92.90;;;;;;4906789;29;20039;-77
2023/02/27 10:51:32;;;;;;;5.87;5.37;;;6.20;92.30;;;;;;4895764;29;20040;-80
2023/02/27 10:54:22;;;;;;;5.83;5.30;;;6.20;92.20;;;;;;4917598;29;20043;-80
2023/02/27 10:57:15;;;;;;;5.67;5.37;;;6.30;93.10;;;;;;5005397;28;20026;-80
2023/02/27 10:59:41;;;;;;;5.40;5.10;;;6.50;92.80;;;;;;4989330;28;20054;-80
2023/02/27 11:02:16;;;;;;;37.03;34.87;;;6.70;92.20;;;;;;4952494;28;20390;-79
2023/02/27 11:04:52;;;;;;;5.57;5.17;;;6.50;91.50;;;;;;4970781;28;20058;-79
2023/02/27 11:07:43;;;;;;;5.80;5.47;;;6.60;91.40;;;;;;4957094;28;20050;-79
2023/02/27 11:10:12;;;;;;;7.78;7.38;;;6.60;91.40;;;;;;4942041;28;20416;-80
2023/02/27 11:12:39;;;;;;;6.77;6.03;;;6.60;91.60;;;;;;4957695;28;20039;-80
2023/02/27 11:15:14;;;;;;;52.83;49.10;;;6.70;91.30;;;;;;4960990;28;20388;-80
2023/02/27 11:17:40;;;;;;;6.40;6.00;;;6.70;91.10;;;;;;4991496;28;20042;-80
2023/02/27 11:20:32;;;;;;;7.27;6.70;;;6.80;91.60;;;;;;4975595;28;20047;-79
2023/02/27 11:23:18;;;;;;;6.73;6.30;;;6.70;90.30;;;;;;4974604;28;20496;-79
2023/02/27 11:25:44;;;;;;;64.03;59.43;;;6.80;90.10;;;;;;4975552;28;20038;-79
2023/02/27 11:28:30;;;;;;;6.40;5.90;;;6.80;90.20;;;;;;4992975;28;20370;-81
2023/02/27 11:31:06;;;;;;;6.03;5.73;;;6.80;90.80;;;;;;4990553;28;20038;-79
2023/02/27 11:33:37;;;;;;;5.93;5.57;;;6.90;89.60;;;;;;4975680;28;20046;-79
2023/02/27 11:36:04;;;;;;;6.40;5.80;;;6.90;88.40;;;;;;4977630;28;20035;-82
2023/02/27 11:38:30;;;;;;;6.53;6.10;;;6.80;85.90;;;;;;4991241;28;20511;-80
2023/02/27 11:41:00;;;;;;;6.33;5.93;;;6.80;89.50;;;;;;4992237;28;20043;-80
2023/02/27 11:43:32;;;;;;;6.93;6.43;;;7.10;89.10;;;;;;5008847;28;20038;-80
2023/02/27 11:45:59;;;;;;;;;;;7.30;87.90;;;;;;4993541;28;20034;-79
2023/02/27 11:48:26;;;;;;;6.38;5.97;;;7.00;86.90;;;;;;4991086;28;19910;-80
2023/02/27 11:51:02;;;;;;;6.50;6.00;;;7.00;88.10;;;;;;5017583;28;20431;-79
2023/02/27 11:53:37;;;;;;;6.13;5.77;;;6.90;85.90;;;;;;4993992;28;20034;-79
2023/02/27 11:56:04;;;;;;;5.53;5.23;;;7.10;87.50;;;;;;4974489;28;20046;-79
2023/02/27 11:58:34;;;;;;;6.55;5.95;;;7.20;85.70;;;;;;4990567;28;20042;-79
2023/02/27 12:01:05;;;;;;;6.13;5.73;;;7.30;88.00;;;;;;4991812;28;20041;-79
2023/02/27 12:03:51;;;;;;;6.17;5.77;;;7.50;85.20;;;;;;4963888;28;20049;-79
2023/02/27 12:06:42;;;;;;;6.05;5.70;;;7.50;85.00;;;;;;5024129;28;20022;-79
2023/02/27 12:09:40;;;;;;;6.25;5.75;;;7.70;83.50;;;;;;4990339;28;20496;-79
2023/02/27 12:12:21;;;;;;;7.70;7.20;;;7.80;84.10;;;;;;4984988;28;20045;-79
2023/02/27 12:14:59;;;;;;;5.97;5.68;;;7.80;80.50;;;;;;4978003;28;20046;-79
2023/02/27 12:17:41;;;;;;;6.30;5.87;;;7.60;81.10;;;;;;4960611;28;20045;-79
2023/02/27 12:20:26;;;;;;;6.13;5.83;;;7.60;81.10;;;;;;4994167;28;20061;-79
2023/02/27 12:22:53;;;;;;;5.88;5.57;;;7.50;79.60;;;;;;4967901;28;20054;-79
2023/02/27 12:26:03;;;;;;;5.90;5.60;;;7.50;80.30;;;;;;4991350;28;20049;-79
2023/02/27 12:28:59;;;;;;;6.20;5.70;;;7.70;80.50;;;;;;4970533;28;20042;-80
2023/02/27 12:31:34;;;;;;;5.65;5.35;;;7.80;79.00;;;;;;4950690;28;20042;-79
2023/02/27 12:34:20;;;;;;;5.63;5.32;;;7.70;79.10;;;;;;4947126;29;20035;-79
2023/02/27 12:36:47;;;;;;;6.63;6.05;;;7.80;78.90;;;;;;4942645;28;20034;-79
2023/02/27 12:39:21;;;;;;;6.18;5.68;;;7.80;78.80;;;;;;4939435;28;20062;-79
2023/02/27 12:42:19;;;;;;;6.20;5.90;;;7.80;79.60;;;;;;4951942;28;20042;-80
2023/02/27 12:44:50;;;;;;;14.63;13.75;;;7.90;77.30;;;;;;4970986;28;20042;-79
2023/02/27 12:47:40;;;;;;;5.97;5.68;;;7.60;75.90;;;;;;4961228;28;20038;-80
2023/02/27 12:50:19;;;;;;;6.07;5.68;;;7.60;77.60;;;;;;4962977;28;20035;-80
2023/02/27 12:53:16;;;;;;;7.40;6.75;;;7.70;79.20;;;;;;4955674;28;20034;-79
2023/02/27 12:55:51;;;;;;;6.28;5.70;;;7.80;75.50;;;;;;4968927;28;20038;-80
2023/02/27 12:58:29;;;;;;;6.20;5.90;;;8.00;76.20;;;;;;4968542;28;20081;-80
2023/02/27 13:01:21;;;;;;;6.07;5.78;;;7.90;73.50;;;;;;4939485;28;20027;-80
2023/02/27 13:04:00;;;;;;;7.60;7.13;;;7.80;72.20;;;;;;4971464;28;20043;-80
2023/02/27 13:06:36;;;;;;;10.15;9.45;;;7.90;71.50;;;;;;4978119;28;20031;-80
2023/02/27 13:09:08;;;;;;;7.30;6.90;;;7.80;70.20;;;;;;4978404;28;20042;-79
2023/02/27 13:11:45;;;;;;;6.18;5.88;;;7.80;70.50;;;;;;4972760;28;20031;-79
2023/02/27 13:14:28;;;;;;;6.47;6.10;;;7.90;72.30;;;;;;4981822;28;20376;-80
2023/02/27 13:17:36;;;;;;;6.32;6.03;;;8.10;71.70;;;;;;5016798;28;20443;-80
2023/02/27 13:20:20;;;;;;;6.80;6.30;;;8.30;73.50;;;;;;4986065;28;20054;-80
2023/02/27 13:23:14;;;;;;;7.03;6.53;;;8.50;70.50;;;;;;5003680;28;20069;-80
2023/02/27 13:25:40;;;;;;;7.00;6.40;;;8.60;71.40;;;;;;4977862;28;20035;-80